Portada
METAR-TAF:

METAR-TAF

Aeroports :

Charleston, Carolina del Sud, Estats Units d'Amèrica

latitud: 32-42-03N, longitud: 080-00-10W, altitud: 5 m

Observació

L'informe es va fer fa 16 minuts, a les 12:35 UTC
Vent calma
Temperatura 10°C
Humitat 100%
Pressió 1010 hPa
Visibilitat: 8.0 km
Núvols disperses a una alçada de 7000 ft
boirina

METAR: KJZI 191235Z AUTO 00000KT 5SM BR SCT070 10/10 A2983 RMK AO2

Hora: 07:51 (12:51 UTC)


TAF: manca

Observacions i pronòstics meteorològics de més de 4000 aeroports (METAR i TAF).

Les estacions disponibles són els punts grocs i vermells al mapa.

Posi el ratolí al punt desitjat per veure el nom de l'estació.

Feu clic per veure les observacions i els pronòstics meteorològics.

Per canviar el mapa: feu clic els botons verds amb una creu de color negre per apropar; al botó verd amb un guió per allunyar la imatge; o en les fletxes verdes per a mapes adjacents.


METAR-TAF: